Huvudsida
METAR-TAF:

METAR-TAF

Flygplatser :

Curaçaos internationella flygplats

Curaçao, Nederländska Antillerna

latitud: 12-12N, longitud: 068-58W, höjd: 9 m

Aktuellt väderrapport

Denna rapport gjordes för 39 minuter sedan, klockan 17:00 UTC
Vind 15 kt från ost
Temperatur 29°C
Fuktighet 62%
Tryck 1015 hPa
Sikt 10 km eller mer

METAR: TNCC 161700Z AUTO 10015KT 9999 NCD 29/21 Q1015 NOSIG

Tid: 13:39 (17:39 UTC)

Väderprognos

Denna rapport gjordes för 2 timmar och 9 minuter sedan, klockan 15:30 UTC
Prognos gäller från 16 kl. 18 UTC till 17 kl. 18 UTC
Vind 15 kt från ost
Sikt 10 km eller mer
Få moln på en höjd av 2000 ft
Temporärt
från 16 kl. 06 UTC till 16 kl. 12 UTC
Brutna moln på en höjd av 1400 ft

TAF: TNCC 161530Z 1618/1718 10015KT 9999 FEW020 TEMPO 1606/1612 BKN014

Aktuella väderrapporter och prognoser från 4000 flygplatser (METAR- och TAF-rapporter).

De tillgängliga stationerna syns som gula och röda prickar på kartan.

För musen över prickarna för att se namnen på stationerna.

Klicka sedan för att få väderrapporter och prognoser.

För att ändra kartan: Klicka på de gröna knapparna med ett svart kors på för att zooma in; den gröna knappen med ett streck på för att zooma ut; eller på de gröna pilarna för angränsande kartor.


METAR-TAF: